sensor_id;sensor_type;location;lat;lon;timestamp;temperature;humidity
60353;DHT22;46196;52.970;6.954;2024-03-02T00:00:26;6.90;99.90
60353;DHT22;46196;52.970;6.954;2024-03-02T00:02:52;6.90;99.90
60353;DHT22;46196;52.970;6.954;2024-03-02T00:05:20;6.90;99.90
60353;DHT22;46196;52.970;6.954;2024-03-02T00:07:52;6.90;99.90
60353;DHT22;46196;52.970;6.954;2024-03-02T00:10:20;6.90;99.90
60353;DHT22;46196;52.970;6.954;2024-03-02T00:12:48;6.90;99.90
60353;DHT22;46196;52.970;6.954;2024-03-02T00:17:55;6.90;99.90
60353;DHT22;46196;52.970;6.954;2024-03-02T00:20:24;6.90;99.90
60353;DHT22;46196;52.970;6.954;2024-03-02T00:23:00;6.90;99.90
60353;DHT22;46196;52.970;6.954;2024-03-02T00:25:36;6.90;99.90
60353;DHT22;46196;52.970;6.954;2024-03-02T00:28:03;6.90;99.90
60353;DHT22;46196;52.970;6.954;2024-03-02T00:31:04;6.90;99.90
60353;DHT22;46196;52.970;6.954;2024-03-02T00:35:57;6.90;99.90
60353;DHT22;46196;52.970;6.954;2024-03-02T00:38:23;6.90;99.90
60353;DHT22;46196;52.970;6.954;2024-03-02T00:40:49;6.90;99.90
60353;DHT22;46196;52.970;6.954;2024-03-02T00:46:04;6.90;99.90
60353;DHT22;46196;52.970;6.954;2024-03-02T00:48:30;6.90;99.90
60353;DHT22;46196;52.970;6.954;2024-03-02T00:50:57;6.90;99.90
60353;DHT22;46196;52.970;6.954;2024-03-02T00:53:24;6.90;99.90
60353;DHT22;46196;52.970;6.954;2024-03-02T00:55:52;7.00;99.90
60353;DHT22;46196;52.970;6.954;2024-03-02T00:58:17;6.90;99.90
60353;DHT22;46196;52.970;6.954;2024-03-02T01:00:43;6.90;99.90
60353;DHT22;46196;52.970;6.954;2024-03-02T01:03:09;7.60;99.90
60353;DHT22;46196;52.970;6.954;2024-03-02T01:05:36;7.00;99.90
60353;DHT22;46196;52.970;6.954;2024-03-02T01:08:02;7.00;99.90
60353;DHT22;46196;52.970;6.954;2024-03-02T01:10:28;7.00;99.90
60353;DHT22;46196;52.970;6.954;2024-03-02T01:12:53;7.00;99.90
60353;DHT22;46196;52.970;6.954;2024-03-02T01:15:19;7.10;99.90
60353;DHT22;46196;52.970;6.954;2024-03-02T01:17:45;7.10;99.90
60353;DHT22;46196;52.970;6.954;2024-03-02T01:20:11;7.10;99.90
60353;DHT22;46196;52.970;6.954;2024-03-02T01:22:36;7.10;99.90
60353;DHT22;46196;52.970;6.954;2024-03-02T01:25:03;7.10;99.90
60353;DHT22;46196;52.970;6.954;2024-03-02T01:27:29;7.10;99.90
60353;DHT22;46196;52.970;6.954;2024-03-02T01:29:54;7.20;99.90
60353;DHT22;46196;52.970;6.954;2024-03-02T01:32:20;7.30;99.90
60353;DHT22;46196;52.970;6.954;2024-03-02T01:34:46;7.20;99.90
60353;DHT22;46196;52.970;6.954;2024-03-02T01:37:12;7.90;99.90
60353;DHT22;46196;52.970;6.954;2024-03-02T01:39:38;7.20;99.90
60353;DHT22;46196;52.970;6.954;2024-03-02T01:42:04;7.20;99.90
60353;DHT22;46196;52.970;6.954;2024-03-02T01:44:30;6.90;99.90
60353;DHT22;46196;52.970;6.954;2024-03-02T01:46:56;7.20;99.90
60353;DHT22;46196;52.970;6.954;2024-03-02T01:49:21;7.30;99.90
60353;DHT22;46196;52.970;6.954;2024-03-02T01:51:48;7.30;99.90
60353;DHT22;46196;52.970;6.954;2024-03-02T01:54:13;7.30;99.90
60353;DHT22;46196;52.970;6.954;2024-03-02T01:56:39;7.30;99.90
60353;DHT22;46196;52.970;6.954;2024-03-02T01:59:05;7.50;99.90
60353;DHT22;46196;52.970;6.954;2024-03-02T02:01:31;7.30;99.90
60353;DHT22;46196;52.970;6.954;2024-03-02T02:03:56;7.70;99.90
60353;DHT22;46196;52.970;6.954;2024-03-02T02:06:22;7.30;99.90
60353;DHT22;46196;52.970;6.954;2024-03-02T02:08:48;7.50;99.90
60353;DHT22;46196;52.970;6.954;2024-03-02T02:11:17;7.40;99.90
60353;DHT22;46196;52.970;6.954;2024-03-02T02:13:42;7.40;99.90
60353;DHT22;46196;52.970;6.954;2024-03-02T02:16:08;7.40;99.90
60353;DHT22;46196;52.970;6.954;2024-03-02T02:18:34;7.40;99.90
60353;DHT22;46196;52.970;6.954;2024-03-02T02:21:02;7.40;99.90
60353;DHT22;46196;52.970;6.954;2024-03-02T02:23:28;7.40;99.90
60353;DHT22;46196;52.970;6.954;2024-03-02T02:25:53;7.50;99.90
60353;DHT22;46196;52.970;6.954;2024-03-02T02:28:20;7.70;99.90
60353;DHT22;46196;52.970;6.954;2024-03-02T02:30:46;7.50;99.90
60353;DHT22;46196;52.970;6.954;2024-03-02T02:33:11;7.60;99.90
60353;DHT22;46196;52.970;6.954;2024-03-02T02:35:37;7.60;99.90
60353;DHT22;46196;52.970;6.954;2024-03-02T02:38:03;7.60;99.90
60353;DHT22;46196;52.970;6.954;2024-03-02T02:40:29;7.60;99.90
60353;DHT22;46196;52.970;6.954;2024-03-02T02:42:56;7.60;99.90
60353;DHT22;46196;52.970;6.954;2024-03-02T02:45:22;7.70;99.90
60353;DHT22;46196;52.970;6.954;2024-03-02T02:47:48;7.60;99.90
60353;DHT22;46196;52.970;6.954;2024-03-02T02:50:13;7.60;99.90
60353;DHT22;46196;52.970;6.954;2024-03-02T02:52:40;7.60;99.90
60353;DHT22;46196;52.970;6.954;2024-03-02T02:55:08;7.60;99.90
60353;DHT22;46196;52.970;6.954;2024-03-02T02:57:35;7.60;99.90
60353;DHT22;46196;52.970;6.954;2024-03-02T03:00:06;7.60;99.90
60353;DHT22;46196;52.970;6.954;2024-03-02T03:02:39;7.60;99.90
60353;DHT22;46196;52.970;6.954;2024-03-02T03:05:07;7.60;99.90
60353;DHT22;46196;52.970;6.954;2024-03-02T03:07:34;7.60;99.90
60353;DHT22;46196;52.970;6.954;2024-03-02T03:10:03;7.60;99.90
60353;DHT22;46196;52.970;6.954;2024-03-02T03:12:30;7.60;99.90
60353;DHT22;46196;52.970;6.954;2024-03-02T03:14:56;7.60;99.90
60353;DHT22;46196;52.970;6.954;2024-03-02T03:17:22;7.60;99.90
60353;DHT22;46196;52.970;6.954;2024-03-02T03:19:49;7.60;99.90
60353;DHT22;46196;52.970;6.954;2024-03-02T03:22:14;7.70;99.90
60353;DHT22;46196;52.970;6.954;2024-03-02T03:24:40;7.70;99.90
60353;DHT22;46196;52.970;6.954;2024-03-02T03:27:06;7.70;99.90
60353;DHT22;46196;52.970;6.954;2024-03-02T03:29:32;7.80;99.90
60353;DHT22;46196;52.970;6.954;2024-03-02T03:31:57;7.70;99.90
60353;DHT22;46196;52.970;6.954;2024-03-02T03:34:23;7.70;99.90
60353;DHT22;46196;52.970;6.954;2024-03-02T03:36:49;7.80;99.90
60353;DHT22;46196;52.970;6.954;2024-03-02T03:39:14;7.80;99.90
60353;DHT22;46196;52.970;6.954;2024-03-02T03:41:43;7.80;99.90
60353;DHT22;46196;52.970;6.954;2024-03-02T03:44:09;7.80;99.90
60353;DHT22;46196;52.970;6.954;2024-03-02T03:46:34;7.80;99.90
60353;DHT22;46196;52.970;6.954;2024-03-02T03:49:00;7.90;99.90
60353;DHT22;46196;52.970;6.954;2024-03-02T03:51:26;7.90;99.90
60353;DHT22;46196;52.970;6.954;2024-03-02T03:53:51;7.80;99.90
60353;DHT22;46196;52.970;6.954;2024-03-02T03:56:17;7.90;99.90
60353;DHT22;46196;52.970;6.954;2024-03-02T03:58:43;7.90;99.90
60353;DHT22;46196;52.970;6.954;2024-03-02T04:01:08;7.90;99.90
60353;DHT22;46196;52.970;6.954;2024-03-02T04:03:34;7.80;99.90
60353;DHT22;46196;52.970;6.954;2024-03-02T04:06:00;7.80;99.90
60353;DHT22;46196;52.970;6.954;2024-03-02T04:08:26;7.90;99.90
60353;DHT22;46196;52.970;6.954;2024-03-02T04:10:51;7.80;99.90
60353;DHT22;46196;52.970;6.954;2024-03-02T04:13:17;7.60;99.90
60353;DHT22;46196;52.970;6.954;2024-03-02T04:15:43;7.60;99.90
60353;DHT22;46196;52.970;6.954;2024-03-02T04:18:09;7.50;99.90
60353;DHT22;46196;52.970;6.954;2024-03-02T04:20:34;7.50;99.90
60353;DHT22;46196;52.970;6.954;2024-03-02T04:23:00;7.50;99.90
60353;DHT22;46196;52.970;6.954;2024-03-02T04:25:26;7.50;99.90
60353;DHT22;46196;52.970;6.954;2024-03-02T04:27:52;7.50;99.90
60353;DHT22;46196;52.970;6.954;2024-03-02T04:30:17;7.60;99.90
60353;DHT22;46196;52.970;6.954;2024-03-02T04:32:43;7.50;99.90
60353;DHT22;46196;52.970;6.954;2024-03-02T04:35:12;7.50;99.90
60353;DHT22;46196;52.970;6.954;2024-03-02T04:37:38;7.50;99.90
60353;DHT22;46196;52.970;6.954;2024-03-02T04:40:05;7.50;99.90
60353;DHT22;46196;52.970;6.954;2024-03-02T04:42:34;7.50;99.90
60353;DHT22;46196;52.970;6.954;2024-03-02T04:45:00;7.50;99.90
60353;DHT22;46196;52.970;6.954;2024-03-02T04:47:25;7.50;99.90
60353;DHT22;46196;52.970;6.954;2024-03-02T04:49:51;7.40;99.90
60353;DHT22;46196;52.970;6.954;2024-03-02T04:52:17;7.40;99.90
60353;DHT22;46196;52.970;6.954;2024-03-02T04:54:43;7.40;99.90
60353;DHT22;46196;52.970;6.954;2024-03-02T04:57:27;7.40;99.90
60353;DHT22;46196;52.970;6.954;2024-03-02T04:59:52;7.40;99.90
60353;DHT22;46196;52.970;6.954;2024-03-02T05:02:18;7.40;99.90
60353;DHT22;46196;52.970;6.954;2024-03-02T05:04:43;7.40;99.90
60353;DHT22;46196;52.970;6.954;2024-03-02T05:07:09;7.40;99.90
60353;DHT22;46196;52.970;6.954;2024-03-02T05:09:35;7.40;99.90
60353;DHT22;46196;52.970;6.954;2024-03-02T05:12:01;7.50;99.90
60353;DHT22;46196;52.970;6.954;2024-03-02T05:14:46;7.40;99.90
60353;DHT22;46196;52.970;6.954;2024-03-02T05:17:11;7.40;99.90
60353;DHT22;46196;52.970;6.954;2024-03-02T05:19:37;7.50;99.90
60353;DHT22;46196;52.970;6.954;2024-03-02T05:22:04;7.40;99.90
60353;DHT22;46196;52.970;6.954;2024-03-02T05:24:29;7.40;99.90
60353;DHT22;46196;52.970;6.954;2024-03-02T05:26:55;7.40;99.90
60353;DHT22;46196;52.970;6.954;2024-03-02T05:29:21;7.40;99.90
60353;DHT22;46196;52.970;6.954;2024-03-02T05:31:47;7.40;99.90
60353;DHT22;46196;52.970;6.954;2024-03-02T05:34:13;7.30;99.90
60353;DHT22;46196;52.970;6.954;2024-03-02T05:36:38;7.30;99.90
60353;DHT22;46196;52.970;6.954;2024-03-02T05:39:05;7.20;99.90
60353;DHT22;46196;52.970;6.954;2024-03-02T05:41:35;7.20;99.90
60353;DHT22;46196;52.970;6.954;2024-03-02T05:44:00;7.10;99.90
60353;DHT22;46196;52.970;6.954;2024-03-02T05:46:27;7.00;99.90
60353;DHT22;46196;52.970;6.954;2024-03-02T05:48:53;7.00;99.90
60353;DHT22;46196;52.970;6.954;2024-03-02T05:51:19;6.90;99.90
60353;DHT22;46196;52.970;6.954;2024-03-02T05:53:44;6.90;99.90
60353;DHT22;46196;52.970;6.954;2024-03-02T05:56:10;6.80;99.90
60353;DHT22;46196;52.970;6.954;2024-03-02T05:58:37;6.80;99.90
60353;DHT22;46196;52.970;6.954;2024-03-02T06:01:22;6.70;99.90
60353;DHT22;46196;52.970;6.954;2024-03-02T06:03:56;6.70;99.90
60353;DHT22;46196;52.970;6.954;2024-03-02T06:06:25;6.60;99.90
60353;DHT22;46196;52.970;6.954;2024-03-02T06:08:51;6.60;99.90
60353;DHT22;46196;52.970;6.954;2024-03-02T06:11:18;6.70;99.90
60353;DHT22;46196;52.970;6.954;2024-03-02T06:13:44;6.60;99.90
60353;DHT22;46196;52.970;6.954;2024-03-02T06:16:10;6.60;99.90
60353;DHT22;46196;52.970;6.954;2024-03-02T06:18:36;6.60;99.90
60353;DHT22;46196;52.970;6.954;2024-03-02T06:21:01;6.60;99.90
60353;DHT22;46196;52.970;6.954;2024-03-02T06:23:27;6.60;99.90
60353;DHT22;46196;52.970;6.954;2024-03-02T06:25:53;6.60;99.90
60353;DHT22;46196;52.970;6.954;2024-03-02T06:28:19;6.60;99.90
60353;DHT22;46196;52.970;6.954;2024-03-02T06:30:44;6.60;99.90
60353;DHT22;46196;52.970;6.954;2024-03-02T06:33:10;6.50;99.90
60353;DHT22;46196;52.970;6.954;2024-03-02T06:35:36;6.50;99.90
60353;DHT22;46196;52.970;6.954;2024-03-02T06:38:02;6.50;99.90
60353;DHT22;46196;52.970;6.954;2024-03-02T06:40:28;6.50;99.90
60353;DHT22;46196;52.970;6.954;2024-03-02T06:42:53;6.50;99.90
60353;DHT22;46196;52.970;6.954;2024-03-02T06:45:19;6.50;99.90
60353;DHT22;46196;52.970;6.954;2024-03-02T06:47:44;6.50;99.90
60353;DHT22;46196;52.970;6.954;2024-03-02T06:50:11;7.50;99.90
60353;DHT22;46196;52.970;6.954;2024-03-02T06:52:36;6.50;99.90
60353;DHT22;46196;52.970;6.954;2024-03-02T06:55:02;6.50;99.90
60353;DHT22;46196;52.970;6.954;2024-03-02T06:57:29;6.60;99.90
60353;DHT22;46196;52.970;6.954;2024-03-02T06:59:55;6.60;99.90
60353;DHT22;46196;52.970;6.954;2024-03-02T07:02:24;6.60;99.90
60353;DHT22;46196;52.970;6.954;2024-03-02T07:04:51;6.80;99.90
60353;DHT22;46196;52.970;6.954;2024-03-02T07:07:16;6.80;99.90
60353;DHT22;46196;52.970;6.954;2024-03-02T07:09:42;6.90;99.90
60353;DHT22;46196;52.970;6.954;2024-03-02T07:12:09;7.00;99.90
60353;DHT22;46196;52.970;6.954;2024-03-02T07:14:35;7.00;99.90
60353;DHT22;46196;52.970;6.954;2024-03-02T07:17:22;7.20;99.90
60353;DHT22;46196;52.970;6.954;2024-03-02T07:19:48;7.10;99.90
60353;DHT22;46196;52.970;6.954;2024-03-02T07:22:14;7.10;99.90
60353;DHT22;46196;52.970;6.954;2024-03-02T07:24:40;7.20;99.90
60353;DHT22;46196;52.970;6.954;2024-03-02T07:27:07;7.40;99.90
60353;DHT22;46196;52.970;6.954;2024-03-02T07:29:33;7.20;99.90
60353;DHT22;46196;52.970;6.954;2024-03-02T07:31:58;7.30;99.90
60353;DHT22;46196;52.970;6.954;2024-03-02T07:34:24;7.30;99.90
60353;DHT22;46196;52.970;6.954;2024-03-02T07:36:50;7.30;99.90
60353;DHT22;46196;52.970;6.954;2024-03-02T07:39:16;7.30;99.90
60353;DHT22;46196;52.970;6.954;2024-03-02T07:41:41;7.30;99.90
60353;DHT22;46196;52.970;6.954;2024-03-02T07:44:07;7.20;99.90
60353;DHT22;46196;52.970;6.954;2024-03-02T07:46:33;7.30;99.90
60353;DHT22;46196;52.970;6.954;2024-03-02T07:48:58;7.30;99.90
60353;DHT22;46196;52.970;6.954;2024-03-02T07:51:24;7.30;99.90
60353;DHT22;46196;52.970;6.954;2024-03-02T07:53:50;7.30;99.90
60353;DHT22;46196;52.970;6.954;2024-03-02T07:56:16;7.40;99.90
60353;DHT22;46196;52.970;6.954;2024-03-02T07:58:50;7.40;99.90
60353;DHT22;46196;52.970;6.954;2024-03-02T08:01:16;7.50;99.90
60353;DHT22;46196;52.970;6.954;2024-03-02T08:03:43;7.50;99.90
60353;DHT22;46196;52.970;6.954;2024-03-02T08:06:14;7.60;99.90
60353;DHT22;46196;52.970;6.954;2024-03-02T08:08:43;7.60;99.90
60353;DHT22;46196;52.970;6.954;2024-03-02T08:11:08;7.60;99.90
60353;DHT22;46196;52.970;6.954;2024-03-02T08:13:34;7.70;99.90
60353;DHT22;46196;52.970;6.954;2024-03-02T08:16:00;7.70;99.90
60353;DHT22;46196;52.970;6.954;2024-03-02T08:18:28;7.90;99.90
60353;DHT22;46196;52.970;6.954;2024-03-02T08:20:54;7.70;99.90
60353;DHT22;46196;52.970;6.954;2024-03-02T08:23:20;7.80;99.90
60353;DHT22;46196;52.970;6.954;2024-03-02T08:25:46;7.90;99.90
60353;DHT22;46196;52.970;6.954;2024-03-02T08:28:12;7.90;99.90
60353;DHT22;46196;52.970;6.954;2024-03-02T08:30:38;8.00;99.90
60353;DHT22;46196;52.970;6.954;2024-03-02T08:33:04;8.00;99.90
60353;DHT22;46196;52.970;6.954;2024-03-02T08:35:29;8.10;99.90
60353;DHT22;46196;52.970;6.954;2024-03-02T08:37:57;8.10;99.90
60353;DHT22;46196;52.970;6.954;2024-03-02T08:40:23;8.20;99.90
60353;DHT22;46196;52.970;6.954;2024-03-02T08:42:49;8.20;99.90
60353;DHT22;46196;52.970;6.954;2024-03-02T08:45:15;8.30;99.90
60353;DHT22;46196;52.970;6.954;2024-03-02T08:47:42;8.30;99.90
60353;DHT22;46196;52.970;6.954;2024-03-02T08:50:07;8.40;99.90
60353;DHT22;46196;52.970;6.954;2024-03-02T08:52:34;8.50;99.90
60353;DHT22;46196;52.970;6.954;2024-03-02T08:54:59;8.50;99.90
60353;DHT22;46196;52.970;6.954;2024-03-02T08:57:25;8.60;99.90
60353;DHT22;46196;52.970;6.954;2024-03-02T08:59:51;8.60;99.90
60353;DHT22;46196;52.970;6.954;2024-03-02T09:02:16;8.70;99.90
60353;DHT22;46196;52.970;6.954;2024-03-02T09:04:42;8.70;99.90
60353;DHT22;46196;52.970;6.954;2024-03-02T09:07:08;8.80;99.90
60353;DHT22;46196;52.970;6.954;2024-03-02T09:09:34;8.90;99.90
60353;DHT22;46196;52.970;6.954;2024-03-02T09:12:00;9.60;99.90
60353;DHT22;46196;52.970;6.954;2024-03-02T09:14:26;10.50;99.90
60353;DHT22;46196;52.970;6.954;2024-03-02T09:16:51;11.70;99.90
60353;DHT22;46196;52.970;6.954;2024-03-02T09:19:17;12.70;99.90
60353;DHT22;46196;52.970;6.954;2024-03-02T09:21:43;13.50;99.90
60353;DHT22;46196;52.970;6.954;2024-03-02T09:24:09;14.10;99.90
60353;DHT22;46196;52.970;6.954;2024-03-02T09:26:35;14.10;99.90
60353;DHT22;46196;52.970;6.954;2024-03-02T09:29:01;14.10;99.90
60353;DHT22;46196;52.970;6.954;2024-03-02T09:31:26;14.20;99.90
60353;DHT22;46196;52.970;6.954;2024-03-02T09:33:52;14.20;99.90
60353;DHT22;46196;52.970;6.954;2024-03-02T09:36:22;14.00;99.90
60353;DHT22;46196;52.970;6.954;2024-03-02T09:38:48;13.80;99.90
60353;DHT22;46196;52.970;6.954;2024-03-02T09:41:14;13.40;99.90
60353;DHT22;46196;52.970;6.954;2024-03-02T09:43:40;13.10;99.90
60353;DHT22;46196;52.970;6.954;2024-03-02T09:46:09;12.90;99.90
60353;DHT22;46196;52.970;6.954;2024-03-02T09:48:35;12.80;99.90
60353;DHT22;46196;52.970;6.954;2024-03-02T09:51:01;12.80;99.90
60353;DHT22;46196;52.970;6.954;2024-03-02T09:53:33;12.80;99.90
60353;DHT22;46196;52.970;6.954;2024-03-02T09:56:00;12.80;99.90
60353;DHT22;46196;52.970;6.954;2024-03-02T09:58:26;13.00;99.90
60353;DHT22;46196;52.970;6.954;2024-03-02T10:00:52;12.80;99.90
60353;DHT22;46196;52.970;6.954;2024-03-02T10:03:19;12.80;99.90
60353;DHT22;46196;52.970;6.954;2024-03-02T10:05:44;12.70;99.90
60353;DHT22;46196;52.970;6.954;2024-03-02T10:08:10;12.70;99.90
60353;DHT22;46196;52.970;6.954;2024-03-02T10:10:40;12.60;99.90
60353;DHT22;46196;52.970;6.954;2024-03-02T10:13:13;12.50;99.90
60353;DHT22;46196;52.970;6.954;2024-03-02T10:15:41;12.40;99.90
60353;DHT22;46196;52.970;6.954;2024-03-02T10:18:11;12.40;99.90
60353;DHT22;46196;52.970;6.954;2024-03-02T10:20:37;12.30;99.90
60353;DHT22;46196;52.970;6.954;2024-03-02T10:23:14;12.30;99.90
60353;DHT22;46196;52.970;6.954;2024-03-02T10:25:40;12.30;99.90
60353;DHT22;46196;52.970;6.954;2024-03-02T10:28:06;12.40;99.90
60353;DHT22;46196;52.970;6.954;2024-03-02T10:30:33;12.50;99.90
60353;DHT22;46196;52.970;6.954;2024-03-02T10:33:02;12.60;99.90
60353;DHT22;46196;52.970;6.954;2024-03-02T10:35:28;12.60;99.90
60353;DHT22;46196;52.970;6.954;2024-03-02T10:37:58;12.60;99.90
60353;DHT22;46196;52.970;6.954;2024-03-02T10:40:24;12.50;99.90
60353;DHT22;46196;52.970;6.954;2024-03-02T10:42:50;12.50;99.90
60353;DHT22;46196;52.970;6.954;2024-03-02T10:45:23;12.60;99.90
60353;DHT22;46196;52.970;6.954;2024-03-02T10:47:50;12.60;99.90
60353;DHT22;46196;52.970;6.954;2024-03-02T10:50:16;12.70;99.90
60353;DHT22;46196;52.970;6.954;2024-03-02T10:52:42;12.60;99.90
60353;DHT22;46196;52.970;6.954;2024-03-02T10:55:09;12.60;99.90
60353;DHT22;46196;52.970;6.954;2024-03-02T10:57:42;12.60;99.90
60353;DHT22;46196;52.970;6.954;2024-03-02T11:00:12;12.60;99.90
60353;DHT22;46196;52.970;6.954;2024-03-02T11:02:56;12.50;99.90
60353;DHT22;46196;52.970;6.954;2024-03-02T11:05:27;12.60;99.90
60353;DHT22;46196;52.970;6.954;2024-03-02T11:08:02;12.60;99.90
60353;DHT22;46196;52.970;6.954;2024-03-02T11:10:35;12.60;99.90
60353;DHT22;46196;52.970;6.954;2024-03-02T11:13:05;12.60;99.90
60353;DHT22;46196;52.970;6.954;2024-03-02T11:15:31;12.70;99.90
60353;DHT22;46196;52.970;6.954;2024-03-02T11:18:00;12.70;99.90
60353;DHT22;46196;52.970;6.954;2024-03-02T11:20:27;12.90;99.90
60353;DHT22;46196;52.970;6.954;2024-03-02T11:22:54;13.00;99.90
60353;DHT22;46196;52.970;6.954;2024-03-02T11:25:23;13.10;99.90
60353;DHT22;46196;52.970;6.954;2024-03-02T11:33:04;13.20;99.90
60353;DHT22;46196;52.970;6.954;2024-03-02T11:35:37;13.20;99.90
60353;DHT22;46196;52.970;6.954;2024-03-02T11:38:03;13.20;99.90
60353;DHT22;46196;52.970;6.954;2024-03-02T11:40:30;13.30;99.90
60353;DHT22;46196;52.970;6.954;2024-03-02T11:42:56;13.40;99.90
60353;DHT22;46196;52.970;6.954;2024-03-02T11:45:26;13.60;99.90
60353;DHT22;46196;52.970;6.954;2024-03-02T11:47:55;13.70;99.90
60353;DHT22;46196;52.970;6.954;2024-03-02T11:50:33;13.90;99.90
60353;DHT22;46196;52.970;6.954;2024-03-02T11:53:00;14.10;99.90
60353;DHT22;46196;52.970;6.954;2024-03-02T11:55:26;14.20;99.90
60353;DHT22;46196;52.970;6.954;2024-03-02T11:57:55;14.30;99.90
60353;DHT22;46196;52.970;6.954;2024-03-02T12:00:21;14.40;99.90
60353;DHT22;46196;52.970;6.954;2024-03-02T12:02:59;14.40;99.90
60353;DHT22;46196;52.970;6.954;2024-03-02T12:05:26;14.40;99.90
60353;DHT22;46196;52.970;6.954;2024-03-02T12:08:03;14.40;99.90
60353;DHT22;46196;52.970;6.954;2024-03-02T12:10:30;14.50;99.90
60353;DHT22;46196;52.970;6.954;2024-03-02T12:13:07;14.50;99.90
60353;DHT22;46196;52.970;6.954;2024-03-02T12:15:35;14.50;99.90
60353;DHT22;46196;52.970;6.954;2024-03-02T12:18:02;14.50;99.90
60353;DHT22;46196;52.970;6.954;2024-03-02T12:20:29;14.50;99.90
60353;DHT22;46196;52.970;6.954;2024-03-02T12:22:57;14.40;99.90
60353;DHT22;46196;52.970;6.954;2024-03-02T12:25:24;14.30;99.90
60353;DHT22;46196;52.970;6.954;2024-03-02T12:27:53;14.40;99.90
60353;DHT22;46196;52.970;6.954;2024-03-02T12:30:19;14.30;99.90
60353;DHT22;46196;52.970;6.954;2024-03-02T12:32:46;14.40;99.90
60353;DHT22;46196;52.970;6.954;2024-03-02T12:35:12;14.40;99.90
60353;DHT22;46196;52.970;6.954;2024-03-02T12:37:44;14.50;99.90
60353;DHT22;46196;52.970;6.954;2024-03-02T12:40:14;14.70;99.90
60353;DHT22;46196;52.970;6.954;2024-03-02T12:42:41;14.80;99.90
60353;DHT22;46196;52.970;6.954;2024-03-02T12:45:10;15.00;99.90
60353;DHT22;46196;52.970;6.954;2024-03-02T12:47:36;15.40;99.90
60353;DHT22;46196;52.970;6.954;2024-03-02T12:50:04;15.70;99.90
60353;DHT22;46196;52.970;6.954;2024-03-02T12:52:30;16.10;99.90
60353;DHT22;46196;52.970;6.954;2024-03-02T12:54:59;16.20;99.90
60353;DHT22;46196;52.970;6.954;2024-03-02T12:57:32;16.20;99.90
60353;DHT22;46196;52.970;6.954;2024-03-02T13:00:05;16.20;99.90
60353;DHT22;46196;52.970;6.954;2024-03-02T13:02:40;16.20;99.60
60353;DHT22;46196;52.970;6.954;2024-03-02T13:05:07;16.00;99.90
60353;DHT22;46196;52.970;6.954;2024-03-02T13:07:39;15.90;98.80
60353;DHT22;46196;52.970;6.954;2024-03-02T13:10:07;15.80;98.20
60353;DHT22;46196;52.970;6.954;2024-03-02T13:12:36;15.80;99.60
60353;DHT22;46196;52.970;6.954;2024-03-02T13:15:03;16.10;99.90
60353;DHT22;46196;52.970;6.954;2024-03-02T13:17:29;16.30;99.70
60353;DHT22;46196;52.970;6.954;2024-03-02T13:19:56;16.60;99.90
60353;DHT22;46196;52.970;6.954;2024-03-02T13:24:49;16.90;99.10
60353;DHT22;46196;52.970;6.954;2024-03-02T13:27:18;17.50;95.10
60353;DHT22;46196;52.970;6.954;2024-03-02T13:29:47;17.50;95.80
60353;DHT22;46196;52.970;6.954;2024-03-02T13:32:14;17.60;95.80
60353;DHT22;46196;52.970;6.954;2024-03-02T13:34:40;17.40;95.60
60353;DHT22;46196;52.970;6.954;2024-03-02T13:37:05;17.20;94.00
60353;DHT22;46196;52.970;6.954;2024-03-02T13:39:34;17.10;95.90
60353;DHT22;46196;52.970;6.954;2024-03-02T13:42:09;16.90;95.20
60353;DHT22;46196;52.970;6.954;2024-03-02T13:44:35;16.70;95.60
60353;DHT22;46196;52.970;6.954;2024-03-02T13:47:01;16.60;96.20
60353;DHT22;46196;52.970;6.954;2024-03-02T13:49:27;16.40;95.80
60353;DHT22;46196;52.970;6.954;2024-03-02T13:52:06;16.30;95.30
60353;DHT22;46196;52.970;6.954;2024-03-02T13:54:47;16.20;96.40
60353;DHT22;46196;52.970;6.954;2024-03-02T13:57:13;16.10;97.00
60353;DHT22;46196;52.970;6.954;2024-03-02T13:59:41;16.10;96.30
60353;DHT22;46196;52.970;6.954;2024-03-02T14:02:07;16.00;95.00
60353;DHT22;46196;52.970;6.954;2024-03-02T14:04:34;15.90;95.70
60353;DHT22;46196;52.970;6.954;2024-03-02T14:07:01;15.80;96.20
60353;DHT22;46196;52.970;6.954;2024-03-02T14:09:26;15.80;97.00
60353;DHT22;46196;52.970;6.954;2024-03-02T14:11:53;15.70;97.00
60353;DHT22;46196;52.970;6.954;2024-03-02T14:14:19;15.70;97.60
60353;DHT22;46196;52.970;6.954;2024-03-02T14:16:45;15.70;97.60
60353;DHT22;46196;52.970;6.954;2024-03-02T14:19:11;15.70;97.10
60353;DHT22;46196;52.970;6.954;2024-03-02T14:21:40;15.60;96.40
60353;DHT22;46196;52.970;6.954;2024-03-02T14:24:06;15.50;97.00
60353;DHT22;46196;52.970;6.954;2024-03-02T14:26:33;15.50;97.70
60353;DHT22;46196;52.970;6.954;2024-03-02T14:28:59;15.40;97.50
60353;DHT22;46196;52.970;6.954;2024-03-02T14:31:26;15.30;98.60
60353;DHT22;46196;52.970;6.954;2024-03-02T14:33:53;15.20;99.30
60353;DHT22;46196;52.970;6.954;2024-03-02T14:36:18;15.10;99.10
60353;DHT22;46196;52.970;6.954;2024-03-02T14:38:44;15.00;99.50
60353;DHT22;46196;52.970;6.954;2024-03-02T14:41:10;14.90;99.60
60353;DHT22;46196;52.970;6.954;2024-03-02T14:43:36;14.80;99.90
60353;DHT22;46196;52.970;6.954;2024-03-02T14:46:03;14.70;99.90
60353;DHT22;46196;52.970;6.954;2024-03-02T14:48:29;14.70;99.90
60353;DHT22;46196;52.970;6.954;2024-03-02T14:50:55;14.60;99.90
60353;DHT22;46196;52.970;6.954;2024-03-02T14:53:21;14.60;99.90
60353;DHT22;46196;52.970;6.954;2024-03-02T14:55:47;14.60;99.90
60353;DHT22;46196;52.970;6.954;2024-03-02T14:58:12;14.60;99.90
60353;DHT22;46196;52.970;6.954;2024-03-02T15:00:38;14.50;99.90
60353;DHT22;46196;52.970;6.954;2024-03-02T15:03:05;14.50;99.90
60353;DHT22;46196;52.970;6.954;2024-03-02T15:05:34;14.40;99.90
60353;DHT22;46196;52.970;6.954;2024-03-02T15:08:00;14.40;99.90
60353;DHT22;46196;52.970;6.954;2024-03-02T15:10:28;14.40;99.90
60353;DHT22;46196;52.970;6.954;2024-03-02T15:12:53;14.40;99.90
60353;DHT22;46196;52.970;6.954;2024-03-02T15:15:19;14.40;99.90
60353;DHT22;46196;52.970;6.954;2024-03-02T15:17:45;14.40;99.90
60353;DHT22;46196;52.970;6.954;2024-03-02T15:20:11;14.40;99.90
60353;DHT22;46196;52.970;6.954;2024-03-02T15:22:36;14.40;99.90
60353;DHT22;46196;52.970;6.954;2024-03-02T15:25:02;14.50;99.90
60353;DHT22;46196;52.970;6.954;2024-03-02T15:27:28;14.60;99.90
60353;DHT22;46196;52.970;6.954;2024-03-02T15:29:54;14.60;99.90
60353;DHT22;46196;52.970;6.954;2024-03-02T15:32:21;14.60;99.90
60353;DHT22;46196;52.970;6.954;2024-03-02T15:34:46;14.60;99.90
60353;DHT22;46196;52.970;6.954;2024-03-02T15:37:12;14.60;99.90
60353;DHT22;46196;52.970;6.954;2024-03-02T15:39:38;14.60;99.90
60353;DHT22;46196;52.970;6.954;2024-03-02T15:42:04;14.60;99.90
60353;DHT22;46196;52.970;6.954;2024-03-02T15:44:30;14.70;99.90
60353;DHT22;46196;52.970;6.954;2024-03-02T15:46:58;14.80;99.90
60353;DHT22;46196;52.970;6.954;2024-03-02T15:49:24;14.90;99.90
60353;DHT22;46196;52.970;6.954;2024-03-02T15:51:49;15.00;99.90
60353;DHT22;46196;52.970;6.954;2024-03-02T15:54:15;15.00;99.90